createdAt,value
2023-04-08T00:01:53.401Z,48.70
2023-04-08T00:04:20.931Z,45.17
2023-04-08T00:06:48.062Z,41.93
2023-04-08T00:09:15.383Z,38.80
2023-04-08T00:11:42.631Z,35.53
2023-04-08T00:14:09.777Z,38.93
2023-04-08T00:16:36.940Z,37.13
2023-04-08T00:19:04.103Z,32.10
2023-04-08T00:21:31.533Z,30.13
2023-04-08T00:23:58.704Z,35.20
2023-04-08T00:26:26.478Z,32.57
2023-04-08T00:28:53.574Z,37.87
2023-04-08T00:31:20.874Z,40.70
2023-04-08T00:33:48.118Z,40.83
2023-04-08T00:36:15.227Z,40.87
2023-04-08T00:38:42.329Z,31.47
2023-04-08T00:41:09.449Z,29.70
2023-04-08T00:43:36.534Z,32.70
2023-04-08T00:46:03.837Z,32.30
2023-04-08T00:48:31.490Z,26.70
2023-04-08T00:50:59.077Z,28.93
2023-04-08T00:53:26.374Z,26.30
2023-04-08T00:55:53.451Z,30.73
2023-04-08T00:58:20.602Z,29.53
2023-04-08T01:00:50.491Z,30.47
2023-04-08T01:03:19.433Z,28.70
2023-04-08T01:05:46.768Z,33.10
2023-04-08T01:08:13.867Z,31.80
2023-04-08T01:10:42.884Z,33.53
2023-04-08T01:13:11.922Z,32.33
2023-04-08T01:15:40.850Z,37.60
2023-04-08T01:18:08.533Z,41.77
2023-04-08T01:20:35.713Z,33.40
2023-04-08T01:23:08.727Z,29.90
2023-04-08T01:25:36.798Z,31.13
2023-04-08T01:28:08.218Z,29.60
2023-04-08T01:30:35.437Z,30.03
2023-04-08T01:33:02.952Z,27.70
2023-04-08T01:35:31.169Z,28.73
2023-04-08T01:37:58.274Z,34.07
2023-04-08T01:40:25.469Z,32.27
2023-04-08T01:42:53.420Z,30.43
2023-04-08T01:45:20.593Z,33.67
2023-04-08T01:47:48.294Z,35.60
2023-04-08T01:50:15.769Z,40.17
2023-04-08T01:52:46.056Z,35.23
2023-04-08T01:55:13.171Z,35.60
2023-04-08T01:57:40.967Z,37.37
2023-04-08T02:00:08.808Z,31.67
2023-04-08T02:02:36.956Z,27.27
2023-04-08T02:05:04.271Z,29.80
2023-04-08T02:07:31.399Z,23.70
2023-04-08T02:09:58.818Z,21.43
2023-04-08T02:12:26.616Z,23.17
2023-04-08T02:14:54.050Z,23.67
2023-04-08T02:17:35.344Z,25.30
2023-04-08T02:20:17.135Z,24.33
2023-04-08T02:23:03.348Z,27.27
2023-04-08T02:25:30.949Z,24.80
2023-04-08T02:27:58.067Z,27.67
2023-04-08T02:30:25.391Z,36.17
2023-04-08T02:32:52.533Z,30.00
2023-04-08T02:35:19.651Z,24.30
2023-04-08T02:37:48.133Z,23.73
2023-04-08T02:40:30.856Z,22.63
2023-04-08T02:42:58.035Z,21.30
2023-04-08T02:45:28.632Z,21.10
2023-04-08T02:47:55.916Z,20.63
2023-04-08T02:50:23.064Z,20.90
2023-04-08T02:52:50.130Z,21.30
2023-04-08T02:55:35.815Z,23.63
2023-04-08T02:58:02.909Z,19.17
2023-04-08T03:00:30.054Z,21.47
2023-04-08T03:02:57.392Z,20.03
2023-04-08T03:05:24.714Z,22.27
2023-04-08T03:07:51.804Z,28.10
2023-04-08T03:10:18.915Z,29.07
2023-04-08T03:12:46.044Z,31.80
2023-04-08T03:15:13.134Z,23.47
2023-04-08T03:17:40.477Z,24.07
2023-04-08T03:20:08.061Z,25.33
2023-04-08T03:22:35.253Z,34.40
2023-04-08T03:25:02.366Z,71.67
2023-04-08T03:27:29.498Z,174.77
2023-04-08T03:29:57.877Z,71.93
2023-04-08T03:32:25.276Z,56.87
2023-04-08T03:34:52.393Z,48.63
2023-04-08T03:37:19.655Z,40.70
2023-04-08T03:39:47.160Z,36.30
2023-04-08T03:42:14.275Z,34.60
2023-04-08T03:44:41.386Z,45.63
2023-04-08T03:47:08.504Z,48.20
2023-04-08T03:49:35.640Z,48.23
2023-04-08T03:52:02.792Z,35.77
2023-04-08T03:54:29.906Z,35.50
2023-04-08T03:56:57.004Z,48.63
2023-04-08T03:59:24.630Z,30.87
2023-04-08T04:01:53.518Z,25.43
2023-04-08T04:04:21.297Z,22.87
2023-04-08T04:06:48.795Z,23.47
2023-04-08T04:09:16.905Z,22.13
2023-04-08T04:11:44.085Z,20.73
2023-04-08T04:14:11.464Z,23.20
2023-04-08T04:16:38.710Z,23.43
2023-04-08T04:19:06.067Z,21.97
2023-04-08T04:21:33.194Z,22.77
2023-04-08T04:24:00.468Z,22.53
2023-04-08T04:26:27.547Z,22.97
2023-04-08T04:28:54.642Z,26.90
2023-04-08T04:31:22.117Z,25.97
2023-04-08T04:33:49.480Z,23.83
2023-04-08T04:36:16.555Z,24.40
2023-04-08T04:38:43.872Z,25.23
2023-04-08T04:41:11.033Z,43.83
2023-04-08T04:43:38.174Z,49.67
2023-04-08T04:46:08.839Z,34.43
2023-04-08T04:48:36.350Z,31.30
2023-04-08T04:51:03.471Z,38.70
2023-04-08T04:53:31.593Z,35.90
2023-04-08T04:55:58.916Z,33.10
2023-04-08T04:58:26.011Z,32.33
2023-04-08T05:00:53.140Z,27.97
2023-04-08T05:03:20.660Z,29.80
2023-04-08T05:05:51.528Z,34.67
2023-04-08T05:08:18.635Z,35.33
2023-04-08T05:10:45.908Z,39.03
2023-04-08T05:13:13.029Z,34.10
2023-04-08T05:15:40.460Z,34.20
2023-04-08T05:18:07.699Z,34.17
2023-04-08T05:20:34.846Z,33.33
2023-04-08T05:23:02.001Z,36.17
2023-04-08T05:25:29.072Z,34.33
2023-04-08T05:27:56.634Z,32.00
2023-04-08T05:30:23.782Z,32.03
2023-04-08T05:32:51.078Z,33.80
2023-04-08T05:35:18.221Z,31.10
2023-04-08T05:37:45.616Z,37.43
2023-04-08T05:40:12.756Z,27.53
2023-04-08T05:42:39.876Z,25.30
2023-04-08T05:45:07.398Z,30.47
2023-04-08T05:47:34.609Z,29.13
2023-04-08T05:50:01.719Z,25.33
2023-04-08T05:52:28.873Z,26.43
2023-04-08T05:54:55.991Z,31.37
2023-04-08T05:57:23.049Z,34.37
2023-04-08T05:59:50.260Z,31.40
2023-04-08T06:02:17.595Z,44.67
2023-04-08T06:04:44.787Z,33.83
2023-04-08T06:07:12.018Z,35.77
2023-04-08T06:09:39.120Z,30.20
2023-04-08T06:12:06.297Z,27.07
2023-04-08T06:14:33.442Z,24.97
2023-04-08T06:17:00.547Z,25.73
2023-04-08T06:19:27.645Z,26.40
2023-04-08T06:21:58.824Z,23.70
2023-04-08T06:24:29.508Z,23.70
2023-04-08T06:26:56.803Z,21.37
2023-04-08T06:29:24.001Z,23.93
2023-04-08T06:31:51.535Z,24.20
2023-04-08T06:34:18.655Z,26.17
2023-04-08T06:36:45.792Z,28.93
2023-04-08T06:39:13.059Z,25.53
2023-04-08T06:41:40.165Z,37.73
2023-04-08T06:44:07.279Z,25.27
2023-04-08T06:46:34.350Z,23.23
2023-04-08T06:49:01.497Z,21.57
2023-04-08T06:51:28.608Z,17.53
2023-04-08T06:53:56.307Z,23.70
2023-04-08T06:56:23.443Z,20.23
2023-04-08T06:58:51.049Z,20.87
2023-04-08T07:01:18.314Z,19.70
2023-04-08T07:03:45.541Z,19.23
2023-04-08T07:06:12.765Z,21.17
2023-04-08T07:08:39.936Z,19.33
2023-04-08T07:11:07.805Z,21.87
2023-04-08T07:13:34.972Z,23.73
2023-04-08T07:16:02.044Z,18.40
2023-04-08T07:18:29.150Z,18.17
2023-04-08T07:20:56.412Z,22.60
2023-04-08T07:23:23.618Z,21.87
2023-04-08T07:25:50.724Z,18.23
2023-04-08T07:28:17.919Z,14.63
2023-04-08T07:30:46.239Z,21.30
2023-04-08T07:33:13.608Z,16.20
2023-04-08T07:35:42.028Z,15.38
2023-04-08T07:38:11.557Z,14.20
2023-04-08T07:40:38.693Z,14.47
2023-04-08T07:43:05.949Z,15.80
2023-04-08T07:45:33.177Z,13.18
2023-04-08T07:48:00.397Z,14.40
2023-04-08T07:50:27.573Z,13.80
2023-04-08T07:52:54.694Z,17.10
2023-04-08T07:55:21.792Z,13.75
2023-04-08T07:57:48.934Z,11.35
2023-04-08T08:00:21.469Z,11.27
2023-04-08T08:02:48.895Z,10.40
2023-04-08T08:05:16.251Z,9.87
2023-04-08T08:07:43.482Z,9.23
2023-04-08T08:10:11.297Z,8.20
2023-04-08T08:12:38.474Z,7.45
2023-04-08T08:15:05.781Z,7.30
2023-04-08T08:17:33.823Z,7.22
2023-04-08T08:20:01.527Z,8.90
2023-04-08T08:22:28.702Z,8.32
2023-04-08T08:24:56.761Z,11.32
2023-04-08T08:27:24.035Z,9.93
2023-04-08T08:29:51.246Z,8.75
2023-04-08T08:32:18.377Z,9.80
2023-04-08T08:34:45.671Z,11.32
2023-04-08T08:37:12.809Z,9.18
2023-04-08T08:39:39.911Z,10.88
2023-04-08T08:42:06.978Z,10.07
2023-04-08T08:44:34.103Z,8.15
2023-04-08T08:47:01.335Z,7.13
2023-04-08T08:49:28.487Z,8.13
2023-04-08T08:51:55.942Z,6.78
2023-04-08T08:54:23.155Z,6.60
2023-04-08T08:56:50.326Z,6.97
2023-04-08T08:59:17.423Z,8.13
2023-04-08T09:01:44.706Z,10.70
2023-04-08T09:04:12.182Z,7.65
2023-04-08T09:06:39.530Z,7.60
2023-04-08T09:09:10.280Z,9.50
2023-04-08T09:11:38.681Z,9.10
2023-04-08T09:14:07.033Z,6.03
2023-04-08T09:16:34.291Z,10.32
2023-04-08T09:19:09.177Z,10.27
2023-04-08T09:21:36.341Z,13.55
2023-04-08T09:24:03.430Z,11.60
2023-04-08T09:26:30.735Z,11.93
2023-04-08T09:28:58.881Z,12.07
2023-04-08T09:31:27.708Z,11.88
2023-04-08T09:33:55.459Z,8.77
2023-04-08T09:36:22.829Z,10.05
2023-04-08T09:38:50.492Z,11.57
2023-04-08T09:41:18.188Z,8.80
2023-04-08T09:43:50.383Z,9.55
2023-04-08T09:46:18.547Z,8.50
2023-04-08T09:49:02.710Z,9.23
2023-04-08T09:51:30.089Z,8.55
2023-04-08T09:53:58.085Z,11.73
2023-04-08T09:56:25.952Z,11.23
2023-04-08T09:58:53.469Z,8.32
2023-04-08T10:01:23.073Z,11.15
2023-04-08T10:03:51.037Z,8.27
2023-04-08T10:06:18.955Z,8.38
2023-04-08T10:08:46.162Z,8.00
2023-04-08T10:11:13.360Z,6.97
2023-04-08T10:13:40.456Z,6.47
2023-04-08T10:16:27.610Z,8.90
2023-04-08T10:18:58.114Z,5.60
2023-04-08T10:21:32.096Z,21.20
2023-04-08T10:24:00.086Z,6.70
2023-04-08T10:26:34.451Z,5.55
2023-04-08T10:29:19.714Z,5.90
2023-04-08T10:31:50.754Z,5.63
2023-04-08T10:34:21.510Z,5.40
2023-04-08T10:36:49.099Z,7.63
2023-04-08T10:39:16.532Z,6.53
2023-04-08T10:41:44.168Z,10.15
2023-04-08T10:44:23.891Z,8.30
2023-04-08T10:46:51.360Z,7.88
2023-04-08T10:49:18.680Z,7.00
2023-04-08T10:51:46.124Z,12.85
2023-04-08T10:54:13.813Z,11.93
2023-04-08T10:56:47.875Z,9.85
2023-04-08T10:59:20.039Z,10.98
2023-04-08T11:01:47.305Z,11.20
2023-04-08T11:04:15.312Z,10.07
2023-04-08T11:06:43.107Z,9.50
2023-04-08T11:09:10.458Z,11.57
2023-04-08T11:11:37.933Z,10.77
2023-04-08T11:14:05.882Z,13.10
2023-04-08T11:16:33.559Z,9.00
2023-04-08T11:19:00.927Z,12.77
2023-04-08T11:21:29.564Z,15.07
2023-04-08T11:23:57.077Z,11.25
2023-04-08T11:26:24.252Z,13.88
2023-04-08T11:28:52.067Z,13.75
2023-04-08T11:31:22.675Z,11.13
2023-04-08T11:33:53.526Z,11.52
2023-04-08T11:36:21.818Z,12.95
2023-04-08T11:38:48.998Z,11.43
2023-04-08T11:41:16.375Z,10.48
2023-04-08T11:43:56.301Z,10.65
2023-04-08T11:46:23.891Z,12.70
2023-04-08T11:49:07.579Z,9.40
2023-04-08T11:51:35.454Z,11.48
2023-04-08T11:54:09.017Z,11.20
2023-04-08T11:56:45.855Z,17.45
2023-04-08T11:59:12.980Z,14.38
2023-04-08T12:01:40.405Z,12.10
2023-04-08T12:04:10.396Z,11.48
2023-04-08T12:06:37.731Z,12.77
2023-04-08T12:09:04.879Z,9.95
2023-04-08T12:11:32.066Z,10.27
2023-04-08T12:13:59.136Z,9.52
2023-04-08T12:16:26.404Z,10.50
2023-04-08T12:18:53.823Z,12.23
2023-04-08T12:21:21.122Z,13.88
2023-04-08T12:23:48.413Z,15.98
2023-04-08T12:26:15.697Z,14.15
2023-04-08T12:28:42.853Z,15.65
2023-04-08T12:31:09.943Z,13.85
2023-04-08T12:33:37.105Z,18.67
2023-04-08T12:36:04.536Z,14.40
2023-04-08T12:38:31.709Z,12.23
2023-04-08T12:40:58.823Z,13.88
2023-04-08T12:43:26.036Z,17.83
2023-04-08T12:45:53.187Z,17.30
2023-04-08T12:48:20.508Z,15.32
2023-04-08T12:50:47.624Z,15.30
2023-04-08T12:53:14.754Z,16.70
2023-04-08T12:55:43.849Z,17.38
2023-04-08T12:58:11.754Z,17.88
2023-04-08T13:00:39.008Z,18.73
2023-04-08T13:03:06.451Z,21.85
2023-04-08T13:08:07.259Z,23.48
2023-04-08T13:10:34.346Z,27.13
2023-04-08T13:13:01.610Z,23.67
2023-04-08T13:15:28.741Z,20.02
2023-04-08T13:17:56.020Z,15.45
2023-04-08T13:20:25.773Z,16.98
2023-04-08T13:22:56.143Z,17.38
2023-04-08T13:25:23.268Z,15.95
2023-04-08T13:27:50.593Z,22.40
2023-04-08T13:30:17.722Z,23.83
2023-04-08T13:32:44.874Z,28.60
2023-04-08T13:35:12.000Z,25.27
2023-04-08T13:37:40.427Z,28.73
2023-04-08T13:40:08.713Z,24.52
2023-04-08T13:42:35.895Z,27.58
2023-04-08T13:45:03.024Z,22.90
2023-04-08T13:47:30.148Z,26.50
2023-04-08T13:49:57.312Z,32.38
2023-04-08T13:52:24.442Z,40.70
2023-04-08T13:54:51.578Z,59.40
2023-04-08T13:57:18.683Z,40.80
2023-04-08T13:59:45.819Z,53.80
2023-04-08T14:02:13.083Z,57.05
2023-04-08T14:04:40.482Z,40.90
2023-04-08T14:07:07.744Z,40.33
2023-04-08T14:09:35.810Z,39.13
2023-04-08T14:12:02.916Z,35.00
2023-04-08T14:14:30.276Z,33.55
2023-04-08T14:16:57.426Z,34.88
2023-04-08T14:19:24.554Z,35.03
2023-04-08T14:21:51.983Z,32.17
2023-04-08T14:24:19.070Z,30.23
2023-04-08T14:26:46.357Z,34.17
2023-04-08T14:29:13.502Z,21.92
2023-04-08T14:31:40.865Z,25.00
2023-04-08T14:34:08.168Z,23.52
2023-04-08T14:36:35.262Z,41.35
2023-04-08T14:39:02.666Z,46.05
2023-04-08T14:41:29.779Z,47.53
2023-04-08T14:43:57.120Z,33.00
2023-04-08T14:46:25.371Z,43.45
2023-04-08T14:48:54.411Z,26.48
2023-04-08T14:51:21.502Z,57.42
2023-04-08T14:53:48.614Z,43.28
2023-04-08T14:56:16.081Z,26.80
2023-04-08T14:58:43.212Z,17.40
2023-04-08T15:01:11.470Z,27.10
2023-04-08T15:03:38.699Z,23.40
2023-04-08T15:06:06.804Z,20.10
2023-04-08T15:08:35.027Z,18.42
2023-04-08T15:11:02.196Z,20.27
2023-04-08T15:13:29.384Z,20.97
2023-04-08T15:15:56.697Z,23.10
2023-04-08T15:18:24.008Z,34.95
2023-04-08T15:20:51.540Z,35.60
2023-04-08T15:23:18.875Z,30.58
2023-04-08T15:25:47.425Z,27.97
2023-04-08T15:28:14.548Z,26.25
2023-04-08T15:30:41.697Z,20.42
2023-04-08T15:33:08.914Z,26.27
2023-04-08T15:35:37.930Z,23.52
2023-04-08T15:38:05.021Z,44.55
2023-04-08T15:40:33.779Z,32.43
2023-04-08T15:43:01.307Z,35.38
2023-04-08T15:45:28.597Z,27.92
2023-04-08T15:47:56.018Z,26.40
2023-04-08T15:50:23.175Z,29.17
2023-04-08T15:52:50.323Z,27.90
2023-04-08T15:55:17.924Z,25.83
2023-04-08T15:57:45.068Z,26.05
2023-04-08T16:00:13.186Z,22.98
2023-04-08T16:02:42.231Z,19.52
2023-04-08T16:05:09.813Z,19.65
2023-04-08T16:07:37.376Z,20.92
2023-04-08T16:10:04.662Z,21.20
2023-04-08T16:12:32.737Z,18.20
2023-04-08T16:14:59.825Z,19.58
2023-04-08T16:17:28.133Z,22.90
2023-04-08T16:19:55.341Z,37.33
2023-04-08T16:22:22.519Z,28.33
2023-04-08T16:24:49.648Z,23.42
2023-04-08T16:27:16.998Z,29.38
2023-04-08T16:29:44.179Z,28.60
2023-04-08T16:32:11.300Z,23.27
2023-04-08T16:34:38.444Z,28.58
2023-04-08T16:37:05.650Z,25.00
2023-04-08T16:39:32.813Z,25.73
2023-04-08T16:42:00.577Z,35.45
2023-04-08T16:44:27.731Z,33.22
2023-04-08T16:46:54.890Z,24.83
2023-04-08T16:49:22.697Z,23.17
2023-04-08T16:51:49.832Z,31.55
2023-04-08T16:54:16.975Z,29.67
2023-04-08T16:56:45.737Z,29.95
2023-04-08T16:59:13.208Z,44.03
2023-04-08T17:01:40.396Z,45.75
2023-04-08T17:04:07.621Z,32.30
2023-04-08T17:06:36.126Z,29.40
2023-04-08T17:09:03.922Z,32.28
2023-04-08T17:11:31.640Z,31.92
2023-04-08T17:13:59.645Z,24.92
2023-04-08T17:16:26.808Z,32.35
2023-04-08T17:18:54.195Z,32.95
2023-04-08T17:21:21.427Z,53.20
2023-04-08T17:23:48.757Z,54.90
2023-04-08T17:26:16.072Z,55.08
2023-04-08T17:28:43.448Z,57.60
2023-04-08T17:31:11.049Z,45.47
2023-04-08T17:33:38.179Z,38.63
2023-04-08T17:36:05.465Z,33.28
2023-04-08T17:38:32.871Z,33.53
2023-04-08T17:40:59.988Z,31.77
2023-04-08T17:43:27.304Z,30.40
2023-04-08T17:45:54.396Z,27.02
2023-04-08T17:48:21.647Z,24.67
2023-04-08T17:50:48.817Z,143.93
2023-04-08T17:53:15.920Z,29.90
2023-04-08T17:55:43.023Z,32.10
2023-04-08T17:58:10.151Z,31.05
2023-04-08T18:00:37.254Z,27.95
2023-04-08T18:03:04.588Z,27.77
2023-04-08T18:05:31.862Z,27.02
2023-04-08T18:07:59.316Z,26.35
2023-04-08T18:10:26.475Z,23.92
2023-04-08T18:12:57.808Z,23.73
2023-04-08T18:15:31.072Z,21.38
2023-04-08T18:17:58.227Z,24.13
2023-04-08T18:20:25.355Z,27.73
2023-04-08T18:22:52.522Z,55.75
2023-04-08T18:25:22.332Z,48.70
2023-04-08T18:27:49.899Z,51.47
2023-04-08T18:30:17.082Z,52.95
2023-04-08T18:32:44.180Z,56.65
2023-04-08T18:35:11.340Z,43.57
2023-04-08T18:37:38.502Z,41.00
2023-04-08T18:40:07.174Z,42.80
2023-04-08T18:42:34.306Z,50.27
2023-04-08T18:45:01.429Z,57.47
2023-04-08T18:47:28.605Z,62.03
2023-04-08T18:49:58.118Z,57.93
2023-04-08T18:52:25.253Z,51.70
2023-04-08T18:54:52.618Z,51.33
2023-04-08T18:57:20.189Z,45.50
2023-04-08T18:59:49.418Z,47.43
2023-04-08T19:02:17.788Z,58.53
2023-04-08T19:04:44.871Z,51.40
2023-04-08T19:07:12.197Z,63.70
2023-04-08T19:09:40.008Z,70.47
2023-04-08T19:12:07.123Z,51.80
2023-04-08T19:14:34.265Z,53.93
2023-04-08T19:17:01.790Z,54.87
2023-04-08T19:19:28.894Z,65.63
2023-04-08T19:21:56.250Z,70.40
2023-04-08T19:24:23.437Z,60.03
2023-04-08T19:26:53.072Z,53.63
2023-04-08T19:29:22.984Z,50.27
2023-04-08T19:31:50.182Z,51.33
2023-04-08T19:34:17.281Z,58.85
2023-04-08T19:36:44.399Z,70.50
2023-04-08T19:39:11.480Z,68.55
2023-04-08T19:41:38.556Z,68.70
2023-04-08T19:44:05.967Z,66.30
2023-04-08T19:46:33.081Z,55.27
2023-04-08T19:49:00.287Z,55.50
2023-04-08T19:51:27.911Z,51.87
2023-04-08T19:53:55.007Z,50.83
2023-04-08T19:56:22.095Z,58.27
2023-04-08T19:58:49.530Z,61.03
2023-04-08T20:01:16.950Z,62.65
2023-04-08T20:03:49.997Z,59.33
2023-04-08T20:06:17.866Z,66.25
2023-04-08T20:08:45.480Z,53.50
2023-04-08T20:11:12.989Z,45.10
2023-04-08T20:13:40.414Z,44.37
2023-04-08T20:16:07.725Z,56.73
2023-04-08T20:18:34.952Z,62.65
2023-04-08T20:21:02.080Z,58.43
2023-04-08T20:23:29.239Z,56.67
2023-04-08T20:25:56.798Z,58.53
2023-04-08T20:28:23.967Z,62.67
2023-04-08T20:30:51.794Z,61.07
2023-04-08T20:33:19.204Z,56.97
2023-04-08T20:35:47.593Z,44.13
2023-04-08T20:38:14.993Z,55.53
2023-04-08T20:40:44.141Z,57.10
2023-04-08T20:43:11.356Z,62.67
2023-04-08T20:45:38.539Z,64.23
2023-04-08T20:48:07.357Z,61.73
2023-04-08T20:50:34.717Z,56.93
2023-04-08T20:53:01.812Z,47.70
2023-04-08T20:55:28.966Z,49.93
2023-04-08T20:57:56.297Z,45.00
2023-04-08T21:00:23.446Z,48.87
2023-04-08T21:02:50.976Z,51.07
2023-04-08T21:05:18.236Z,51.13
2023-04-08T21:07:45.557Z,68.37
2023-04-08T21:10:14.167Z,63.50
2023-04-08T21:12:41.307Z,46.60
2023-04-08T21:15:08.688Z,43.80
2023-04-08T21:17:35.922Z,44.13
2023-04-08T21:20:04.166Z,49.27
2023-04-08T21:22:32.208Z,42.37
2023-04-08T21:24:59.367Z,43.50
2023-04-08T21:27:26.467Z,45.50
2023-04-08T21:29:53.636Z,46.37
2023-04-08T21:32:20.819Z,43.77
2023-04-08T21:34:48.000Z,45.50
2023-04-08T21:37:15.422Z,46.83
2023-04-08T21:39:42.558Z,45.63
2023-04-08T21:42:09.646Z,47.27
2023-04-08T21:44:36.866Z,48.43
2023-04-08T21:47:04.111Z,48.67
2023-04-08T21:49:31.509Z,47.40
2023-04-08T21:51:58.737Z,42.70
2023-04-08T21:54:25.853Z,43.57
2023-04-08T21:56:52.994Z,50.87
2023-04-08T21:59:20.480Z,52.90
2023-04-08T22:01:47.978Z,50.53
2023-04-08T22:04:15.720Z,43.97
2023-04-08T22:06:42.886Z,38.33
2023-04-08T22:09:09.993Z,37.67
2023-04-08T22:11:37.237Z,34.40
2023-04-08T22:14:04.301Z,30.23
2023-04-08T22:16:32.171Z,35.27
2023-04-08T22:18:59.282Z,35.17
2023-04-08T22:21:26.388Z,38.10
2023-04-08T22:23:53.513Z,37.83
2023-04-08T22:26:21.139Z,44.17
2023-04-08T22:28:48.279Z,48.87
2023-04-08T22:31:15.484Z,48.03
2023-04-08T22:33:42.576Z,44.77
2023-04-08T22:36:09.736Z,45.83
2023-04-08T22:38:36.920Z,50.30
2023-04-08T22:41:04.038Z,45.30
2023-04-08T22:43:31.184Z,43.57
2023-04-08T22:45:58.333Z,43.87
2023-04-08T22:48:25.488Z,40.80
2023-04-08T22:50:52.876Z,38.67
2023-04-08T22:53:19.979Z,37.83
2023-04-08T22:55:47.089Z,38.33
2023-04-08T22:58:14.189Z,38.90
2023-04-08T23:00:41.497Z,42.23
2023-04-08T23:03:08.598Z,41.27
2023-04-08T23:05:36.056Z,40.63
2023-04-08T23:08:03.210Z,37.33
2023-04-08T23:10:30.297Z,36.43
2023-04-08T23:12:57.397Z,40.77
2023-04-08T23:15:24.500Z,37.20
2023-04-08T23:17:51.640Z,39.70
2023-04-08T23:20:18.812Z,37.33
2023-04-08T23:22:46.043Z,32.00
2023-04-08T23:25:13.207Z,32.20
2023-04-08T23:27:40.440Z,35.70
2023-04-08T23:30:07.888Z,34.20
2023-04-08T23:32:35.409Z,36.70
2023-04-08T23:35:02.616Z,34.10
2023-04-08T23:37:29.816Z,34.00
2023-04-08T23:39:56.975Z,35.33
2023-04-08T23:42:27.177Z,39.90
2023-04-08T23:44:54.923Z,48.73
2023-04-08T23:47:22.371Z,39.60
2023-04-08T23:49:49.546Z,52.17
2023-04-08T23:52:16.789Z,48.67
2023-04-08T23:54:43.884Z,47.57
2023-04-08T23:57:10.963Z,44.53
2023-04-08T23:59:38.088Z,40.87
